Time;durP1;ratioP1;P1;durP2;ratioP2;P2;SDS_P1;SDS_P2;PMS_P1;PMS_P2;Temp;Humidity;BMP_temperature;BMP_pressure;BME280_temperature;BME280_humidity;BME280_pressure;Samples;Min_cycle;Max_cycle;Signal;HPM_P1;HPM_P2
2022/04/28 00:02:11;;;;;;;;;;;;;;;;;;5097281;28;19927;-77
2022/04/28 00:04:36;;;;;;;;;;;;;;;;;;5097121;28;19938;-78
2022/04/28 00:07:02;;;;;;;;;;;;;;;;;;5115743;28;20301;-78
2022/04/28 00:09:27;;;;;;;;;;;;;;;;;;5117283;28;19968;-78
2022/04/28 00:11:53;;;;;;;;;;;;;;;;;;5117062;28;19923;-78
2022/04/28 00:14:18;;;;;;;;;;;;;;;;;;5111890;28;20362;-78
2022/04/28 00:16:44;;;;;;;;;;;;;;;;;;5095227;28;19916;-77
2022/04/28 00:19:09;;;;;;;;;;;;;;;;;;5096479;28;20057;-78
2022/04/28 00:21:34;;;;;;;;;;;;;;;;;;5095644;28;19923;-77
2022/04/28 00:24:00;;;;;;;;;;;;;;;;;;5095612;28;19955;-77
2022/04/28 00:26:25;;;;;;;;;;;;;;;;;;5096501;28;20350;-77
2022/04/28 00:28:50;;;;;;;;;;;;;;;;;;5096335;28;19916;-77
2022/04/28 00:31:16;;;;;;;;;;;;;;;;;;5100098;28;19969;-78
2022/04/28 00:33:41;;;;;;;;;;;;;;;;;;5116671;28;20010;-77
2022/04/28 00:36:07;;;;;;;;;;;;;;;;;;5116767;28;19916;-77
2022/04/28 00:38:33;;;;;;;;;;;;;;;;;;5109927;28;19963;-77
2022/04/28 00:40:59;;;;;;;;;;;;;;;;;;5096174;28;19961;-77
2022/04/28 00:43:28;;;;;;;;;;;;;;;;;;5094861;28;19916;-77
2022/04/28 00:45:54;;;;;;;;;;;;;;;;;;5094350;28;19916;-77
2022/04/28 00:51:04;;;;;;;;;;;;;;;;;;5094402;28;19916;-77
2022/04/28 00:53:31;;;;;;;;;;;;;;;;;;5077705;28;19923;-78
2022/04/28 00:55:59;;;;;;;;;;;;;;;;;;5095817;28;19923;-77
2022/04/28 00:58:24;;;;;;;;;;;;;;;;;;5094374;28;19947;-77
2022/04/28 01:00:50;;;;;;;;;;;;;;;;;;5094531;28;20374;-77
2022/04/28 01:03:16;;;;;;;;;;;;;;;;;;5096094;28;19959;-77
2022/04/28 01:05:42;;;;;;;;;;;;;;;;;;5102501;28;19927;-77
2022/04/28 01:08:07;;;;;;;;;;;;;;;;;;5116030;28;20050;-77
2022/04/28 01:10:34;;;;;;;;;;;;;;;;;;5116281;28;19919;-77
2022/04/28 01:12:59;;;;;;;;;;;;;;;;;;5114793;28;19916;-77
2022/04/28 01:15:25;;;;;;;;;;;;;;;;;;5114769;28;19915;-77
2022/04/28 01:17:51;;;;;;;;;;;;;;;;;;5114604;28;19922;-77
2022/04/28 01:20:17;;;;;;;;;;;;;;;;;;5115919;28;19947;-77
2022/04/28 01:22:42;;;;;;;;;;;;;;;;;;5115779;28;19925;-77
2022/04/28 01:25:13;;;;;;;;;;;;;;;;;;5114497;28;19962;-77
2022/04/28 01:27:39;;;;;;;;;;;;;;;;;;5114454;28;19963;-77
2022/04/28 01:30:10;;;;;;;;;;;;;;;;;;5114526;28;19965;-77
2022/04/28 01:32:35;;;;;;;;;;;;;;;;;;5111410;28;20358;-77
2022/04/28 01:35:01;;;;;;;;;;;;;;;;;;5093936;28;20197;-77
2022/04/28 01:37:28;;;;;;;;;;;;;;;;;;5093522;28;19920;-78
2022/04/28 01:39:56;;;;;;;;;;;;;;;;;;5090329;28;19962;-77
2022/04/28 01:42:22;;;;;;;;;;;;;;;;;;5074904;28;20251;-77
2022/04/28 01:44:49;;;;;;;;;;;;;;;;;;5073497;28;19916;-77
2022/04/28 01:47:15;;;;;;;;;;;;;;;;;;5073636;28;19920;-77
2022/04/28 01:50:16;;;;;;;;;;;;;;;;;;5080865;28;20003;-77
2022/04/28 01:56:16;;;;;;;;;;;;;;;;;;5091230;27;20286;-77
2022/04/28 01:58:53;;;;;;;;;;;;;;;;;;5090239;28;19979;-77
2022/04/28 02:01:41;;;;;;;;;;;;;;;;;;5090344;28;19916;-77
2022/04/28 02:04:07;;;;;;;;;;;;;;;;;;5084814;28;19920;-77
2022/04/28 02:06:33;;;;;;;;;;;;;;;;;;5067420;28;19921;-77
2022/04/28 02:08:59;;;;;;;;;;;;;;;;;;5068554;28;20009;-77
2022/04/28 02:11:25;;;;;;;;;;;;;;;;;;5084318;28;20371;-77
2022/04/28 02:14:12;;;;;;;;;;;;;;;;;;5084087;28;19928;-77
2022/04/28 02:16:57;;;;;;;;;;;;;;;;;;5068863;28;19970;-77
2022/04/28 02:19:27;;;;;;;;;;;;;;;;;;5084745;28;20490;-76
2022/04/28 02:21:52;;;;;;;;;;;;;;;;;;5069314;28;19962;-76
2022/04/28 02:24:17;;;;;;;;;;;;;;;;;;5084301;28;19923;-77
2022/04/28 02:26:44;;;;;;;;;;;;;;;;;;5086317;28;19916;-79
2022/04/28 02:29:10;;;;;;;;;;;;;;;;;;5092217;28;20445;-82
2022/04/28 02:31:38;;;;;;;;;;;;;;;;;;5088509;28;19915;-82
2022/04/28 02:34:03;;;;;;;;;;;;;;;;;;5124943;28;19920;-81
2022/04/28 02:36:37;;;;;;;;;;;;;;;;;;5103686;28;19919;-77
2022/04/28 02:39:04;;;;;;;;;;;;;;;;;;5122936;28;19919;-80
2022/04/28 02:41:31;;;;;;;;;;;;;;;;;;5124719;28;19937;-80
2022/04/28 02:43:57;;;;;;;;;;;;;;;;;;5125840;28;19920;-80
2022/04/28 02:46:23;;;;;;;;;;;;;;;;;;5127106;28;19983;-80
2022/04/28 02:49:04;;;;;;;;;;;;;;;;;;5125333;28;19938;-80
2022/04/28 02:51:33;;;;;;;;;;;;;;;;;;5111166;28;20386;-80
2022/04/28 02:53:59;;;;;;;;;;;;;;;;;;5125861;28;19916;-79
2022/04/28 02:56:25;;;;;;;;;;;;;;;;;;5144565;27;20377;-80
2022/04/28 02:58:51;;;;;;;;;;;;;;;;;;5145651;27;19975;-81
2022/04/28 03:01:16;;;;;;;;;;;;;;;;;;5139607;28;20394;-76
2022/04/28 03:03:42;;;;;;;;;;;;;;;;;;5109655;28;19922;-77
2022/04/28 03:11:37;;;;;;;;;;;;;;;;;;5094146;28;19919;-78
2022/04/28 03:14:02;;;;;;;;;;;;;;;;;;5093679;28;19923;-77
2022/04/28 03:16:30;;;;;;;;;;;;;;;;;;5093806;28;20015;-78
2022/04/28 03:19:00;;;;;;;;;;;;;;;;;;5077635;28;19977;-77
2022/04/28 03:21:25;;;;;;;;;;;;;;;;;;5095333;28;19916;-78
2022/04/28 03:23:51;;;;;;;;;;;;;;;;;;5094891;28;19916;-77
2022/04/28 03:26:16;;;;;;;;;;;;;;;;;;5094359;28;20412;-77
2022/04/28 03:28:42;;;;;;;;;;;;;;;;;;5096078;28;19959;-78
2022/04/28 03:31:08;;;;;;;;;;;;;;;;;;5098822;28;20343;-78
2022/04/28 03:33:53;;;;;;;;;;;;;;;;;;5116545;28;19962;-78
2022/04/28 03:39:04;;;;;;;;;;;;;;;;;;5115710;28;20373;-77
2022/04/28 03:41:30;;;;;;;;;;;;;;;;;;5115889;28;20002;-76
2022/04/28 03:43:55;;;;;;;;;;;;;;;;;;5116935;28;19916;-77
2022/04/28 03:46:20;;;;;;;;;;;;;;;;;;5115309;28;19923;-77
2022/04/28 03:48:48;;;;;;;;;;;;;;;;;;5115378;28;20065;-77
2022/04/28 03:51:13;;;;;;;;;;;;;;;;;;5115616;28;19915;-77
2022/04/28 03:53:39;;;;;;;;;;;;;;;;;;5098390;28;19938;-77
2022/04/28 03:56:04;;;;;;;;;;;;;;;;;;5114979;28;19959;-77
2022/04/28 03:58:30;;;;;;;;;;;;;;;;;;5098107;28;19922;-77
2022/04/28 04:00:56;;;;;;;;;;;;;;;;;;5114812;28;19912;-77
2022/04/28 04:03:32;;;;;;;;;;;;;;;;;;5114883;28;19998;-78
2022/04/28 04:05:58;;;;;;;;;;;;;;;;;;5103771;28;20070;-77
2022/04/28 04:08:23;;;;;;;;;;;;;;;;;;5094704;28;19939;-77
2022/04/28 04:10:59;;;;;;;;;;;;;;;;;;5101536;28;19920;-77
2022/04/28 04:13:25;;;;;;;;;;;;;;;;;;5114933;28;19915;-77
2022/04/28 04:15:52;;;;;;;;;;;;;;;;;;5097527;28;19920;-77
2022/04/28 04:18:30;;;;;;;;;;;;;;;;;;5112301;28;19963;-77
2022/04/28 04:21:03;;;;;;;;;;;;;;;;;;5095007;28;19916;-77
2022/04/28 04:23:29;;;;;;;;;;;;;;;;;;5094248;28;20262;-77
2022/04/28 04:25:55;;;;;;;;;;;;;;;;;;5094626;28;19916;-77
2022/04/28 04:28:22;;;;;;;;;;;;;;;;;;5094392;28;20452;-77
2022/04/28 04:34:01;;;;;;;;;;;;;;;;;;5016261;28;20291;-77
2022/04/28 04:36:26;;;;;;;;;;;;;;;;;;5079175;28;19916;-78
2022/04/28 04:38:53;;;;;;;;;;;;;;;;;;5093907;28;20374;-78
2022/04/28 04:41:18;;;;;;;;;;;;;;;;;;5095553;28;20000;-77
2022/04/28 04:43:44;;;;;;;;;;;;;;;;;;5094777;28;20297;-77
2022/04/28 04:46:11;;;;;;;;;;;;;;;;;;5093747;28;20008;-77
2022/04/28 04:48:56;;;;;;;;;;;;;;;;;;5095221;28;19916;-77
2022/04/28 04:51:38;;;;;;;;;;;;;;;;;;5093769;28;20057;-77
2022/04/28 04:54:20;;;;;;;;;;;;;;;;;;5094705;28;19920;-77
2022/04/28 04:56:47;;;;;;;;;;;;;;;;;;5093934;28;19927;-77
2022/04/28 04:59:13;;;;;;;;;;;;;;;;;;5093429;28;20282;-76
2022/04/28 05:01:38;;;;;;;;;;;;;;;;;;5094903;28;20065;-79
2022/04/28 05:04:22;;;;;;;;;;;;;;;;;;5096405;28;19986;-76
2022/04/28 05:07:10;;;;;;;;;;;;;;;;;;5094211;28;19916;-77
2022/04/28 05:09:38;;;;;;;;;;;;;;;;;;5093663;28;20390;-76
2022/04/28 05:12:06;;;;;;;;;;;;;;;;;;5094730;28;19927;-77
2022/04/28 05:14:52;;;;;;;;;;;;;;;;;;5095594;28;20015;-78
2022/04/28 05:17:19;;;;;;;;;;;;;;;;;;5096044;28;20373;-80
2022/04/28 05:20:05;;;;;;;;;;;;;;;;;;5096154;28;19916;-79
2022/04/28 05:22:49;;;;;;;;;;;;;;;;;;5097500;28;20301;-78
2022/04/28 05:25:27;;;;;;;;;;;;;;;;;;5104117;28;19919;-78
2022/04/28 05:28:26;;;;;;;;;;;;;;;;;;5075410;28;19923;-78
2022/04/28 05:31:21;;;;;;;;;;;;;;;;;;5093691;28;19975;-78
2022/04/28 05:34:21;;;;;;;;;;;;;;;;;;5104445;28;19919;-79
2022/04/28 05:36:55;;;;;;;;;;;;;;;;;;5115267;28;19920;-78
2022/04/28 05:39:20;;;;;;;;;;;;;;;;;;5113601;28;19915;-78
2022/04/28 05:41:45;;;;;;;;;;;;;;;;;;5098971;28;19923;-78
2022/04/28 05:47:15;;;;;;;;;;;;;;;;;;5057424;28;19917;-78
2022/04/28 05:49:41;;;;;;;;;;;;;;;;;;5038907;28;19960;-79
2022/04/28 05:52:07;;;;;;;;;;;;;;;;;;5063061;28;20515;-81
2022/04/28 05:54:36;;;;;;;;;;;;;;;;;;5091208;28;20018;-79
2022/04/28 05:57:02;;;;;;;;;;;;;;;;;;5079542;28;19916;-79
2022/04/28 05:59:27;;;;;;;;;;;;;;;;;;5097104;28;19927;-78
2022/04/28 06:02:22;;;;;;;;;;;;;;;;;;5094761;28;19958;-78
2022/04/28 06:04:47;;;;;;;;;;;;;;;;;;5094565;28;20263;-78
2022/04/28 06:07:13;;;;;;;;;;;;;;;;;;5092452;28;20298;-77
2022/04/28 06:09:45;;;;;;;;;;;;;;;;;;5075436;28;20378;-77
2022/04/28 06:12:14;;;;;;;;;;;;;;;;;;5090844;28;20007;-77
2022/04/28 06:15:03;;;;;;;;;;;;;;;;;;5085181;28;20030;-78
2022/04/28 06:17:41;;;;;;;;;;;;;;;;;;5070831;28;19916;-77
2022/04/28 06:20:08;;;;;;;;;;;;;;;;;;5070097;28;19924;-77
2022/04/28 06:22:55;;;;;;;;;;;;;;;;;;5082249;28;19916;-78
2022/04/28 06:25:23;;;;;;;;;;;;;;;;;;5090196;28;19916;-78
2022/04/28 06:27:49;;;;;;;;;;;;;;;;;;5073488;28;19916;-77
2022/04/28 06:30:15;;;;;;;;;;;;;;;;;;5090329;28;20419;-77
2022/04/28 06:32:41;;;;;;;;;;;;;;;;;;5091738;28;20007;-78
2022/04/28 06:35:19;;;;;;;;;;;;;;;;;;5091700;28;19974;-77
2022/04/28 06:37:44;;;;;;;;;;;;;;;;;;5093500;28;19920;-77
2022/04/28 06:40:12;;;;;;;;;;;;;;;;;;5092239;28;20006;-77
2022/04/28 06:42:41;;;;;;;;;;;;;;;;;;5095154;28;19920;-77
2022/04/28 06:45:30;;;;;;;;;;;;;;;;;;5066513;28;19916;-77
2022/04/28 06:48:18;;;;;;;;;;;;;;;;;;5096931;28;19956;-78
2022/04/28 06:51:07;;;;;;;;;;;;;;;;;;5066906;28;19916;-77
2022/04/28 06:53:53;;;;;;;;;;;;;;;;;;5095457;28;19919;-78
2022/04/28 06:56:20;;;;;;;;;;;;;;;;;;5095399;28;19920;-77
2022/04/28 06:59:04;;;;;;;;;;;;;;;;;;5095941;28;19962;-77
2022/04/28 07:01:31;;;;;;;;;;;;;;;;;;5095786;28;19916;-77
2022/04/28 07:03:56;;;;;;;;;;;;;;;;;;5095818;28;20014;-77
2022/04/28 07:06:23;;;;;;;;;;;;;;;;;;5095153;28;19920;-77
2022/04/28 07:08:52;;;;;;;;;;;;;;;;;;5096712;28;19920;-77
2022/04/28 07:11:17;;;;;;;;;;;;;;;;;;5095716;28;19920;-77
2022/04/28 07:13:43;;;;;;;;;;;;;;;;;;5095176;28;19918;-77
2022/04/28 07:16:47;;;;;;;;;;;;;;;;;;5076284;28;20008;-77
2022/04/28 07:19:19;;;;;;;;;;;;;;;;;;5074839;28;19923;-77
2022/04/28 07:21:48;;;;;;;;;;;;;;;;;;5074645;28;19986;-76
2022/04/28 07:24:14;;;;;;;;;;;;;;;;;;5057950;28;19918;-75
2022/04/28 07:26:40;;;;;;;;;;;;;;;;;;5059623;28;19984;-77
2022/04/28 07:29:06;;;;;;;;;;;;;;;;;;5074236;28;20374;-80
2022/04/28 07:31:51;;;;;;;;;;;;;;;;;;5095550;28;19916;-81
2022/04/28 07:34:39;;;;;;;;;;;;;;;;;;5100181;28;19979;-80
2022/04/28 07:37:36;;;;;;;;;;;;;;;;;;5120814;28;19938;-79
2022/04/28 07:40:20;;;;;;;;;;;;;;;;;;5119289;28;20341;-79
2022/04/28 07:42:53;;;;;;;;;;;;;;;;;;5116316;28;19922;-80
2022/04/28 07:45:19;;;;;;;;;;;;;;;;;;5119582;28;20285;-81
2022/04/28 07:47:44;;;;;;;;;;;;;;;;;;5120014;28;19923;-82
2022/04/28 07:50:18;;;;;;;;;;;;;;;;;;5105749;28;19916;-80
2022/04/28 07:52:45;;;;;;;;;;;;;;;;;;5119999;28;19915;-80
2022/04/28 07:55:13;;;;;;;;;;;;;;;;;;5100529;28;19920;-83
2022/04/28 07:57:41;;;;;;;;;;;;;;;;;;5119655;28;20377;-82
2022/04/28 08:00:09;;;;;;;;;;;;;;;;;;5119239;28;20343;-81
2022/04/28 08:02:41;;;;;;;;;;;;;;;;;;5107402;28;19916;-79
2022/04/28 08:05:07;;;;;;;;;;;;;;;;;;5098948;28;19920;-81
2022/04/28 08:07:33;;;;;;;;;;;;;;;;;;5088513;28;19973;-82
2022/04/28 08:10:01;;;;;;;;;;;;;;;;;;5116578;28;19916;-80
2022/04/28 08:12:26;;;;;;;;;;;;;;;;;;5115916;28;19923;-78
2022/04/28 08:14:52;;;;;;;;;;;;;;;;;;5113441;28;19942;-78
2022/04/28 08:17:17;;;;;;;;;;;;;;;;;;5117212;28;20002;-78
2022/04/28 08:19:43;;;;;;;;;;;;;;;;;;5090979;28;19924;-80
2022/04/28 08:22:10;;;;;;;;;;;;;;;;;;5074750;28;19916;-77
2022/04/28 08:24:37;;;;;;;;;;;;;;;;;;5074373;28;19921;-77
2022/04/28 08:27:03;;;;;;;;;;;;;;;;;;5073495;28;19986;-76
2022/04/28 08:29:29;;;;;;;;;;;;;;;;;;5073097;28;20282;-76
2022/04/28 08:32:02;;;;;;;;;;;;;;;;;;5081076;28;19923;-76
2022/04/28 08:34:27;;;;;;;;;;;;;;;;;;5073538;28;20027;-76
2022/04/28 08:36:53;;;;;;;;;;;;;;;;;;5073323;28;19958;-76
2022/04/28 08:39:21;;;;;;;;;;;;;;;;;;5090755;28;19955;-77
2022/04/28 08:41:49;;;;;;;;;;;;;;;;;;5088252;28;19971;-77
2022/04/28 08:44:19;;;;;;;;;;;;;;;;;;5094962;28;20382;-77
2022/04/28 08:46:53;;;;;;;;;;;;;;;;;;5076607;28;20370;-77
2022/04/28 08:49:23;;;;;;;;;;;;;;;;;;5093661;28;19923;-77
2022/04/28 08:51:55;;;;;;;;;;;;;;;;;;5093254;28;19961;-77
2022/04/28 08:54:22;;;;;;;;;;;;;;;;;;5094723;28;19928;-77
2022/04/28 08:56:48;;;;;;;;;;;;;;;;;;5097894;28;19920;-77
2022/04/28 08:59:15;;;;;;;;;;;;;;;;;;5081568;28;19916;-77
2022/04/28 09:01:41;;;;;;;;;;;;;;;;;;5097679;28;20269;-77
2022/04/28 09:04:27;;;;;;;;;;;;;;;;;;5100518;28;19927;-77
2022/04/28 09:07:11;;;;;;;;;;;;;;;;;;5100580;28;19979;-77
2022/04/28 09:09:39;;;;;;;;;;;;;;;;;;5100982;28;20472;-77
2022/04/28 09:12:27;;;;;;;;;;;;;;;;;;5089186;28;19919;-78
2022/04/28 09:15:12;;;;;;;;;;;;;;;;;;5097050;28;19920;-79
2022/04/28 09:17:40;;;;;;;;;;;;;;;;;;5081595;28;19916;-79
2022/04/28 09:20:06;;;;;;;;;;;;;;;;;;5095239;28;19920;-78
2022/04/28 09:22:41;;;;;;;;;;;;;;;;;;5079255;28;19959;-78
2022/04/28 09:25:08;;;;;;;;;;;;;;;;;;5095891;28;19920;-78
2022/04/28 09:27:33;;;;;;;;;;;;;;;;;;5098246;28;20082;-78
2022/04/28 09:29:59;;;;;;;;;;;;;;;;;;5097132;28;19955;-78
2022/04/28 09:32:25;;;;;;;;;;;;;;;;;;5098282;28;20427;-78
2022/04/28 09:34:54;;;;;;;;;;;;;;;;;;5096843;28;19938;-78
2022/04/28 09:37:49;;;;;;;;;;;;;;;;;;5084609;28;19916;-78
2022/04/28 09:43:01;;;;;;;;;;;;;;;;;;5096856;28;19983;-78
2022/04/28 09:45:38;;;;;;;;;;;;;;;;;;5096611;28;19953;-78
2022/04/28 09:48:05;;;;;;;;;;;;;;;;;;5095756;28;19927;-77
2022/04/28 09:50:49;;;;;;;;;;;;;;;;;;5094292;28;19916;-77
2022/04/28 09:53:22;;;;;;;;;;;;;;;;;;5095468;28;19968;-78
2022/04/28 09:56:11;;;;;;;;;;;;;;;;;;5078953;28;19959;-77
2022/04/28 09:58:46;;;;;;;;;;;;;;;;;;5093012;28;19923;-79
2022/04/28 10:01:13;;;;;;;;;;;;;;;;;;5078890;28;19916;-80
2022/04/28 10:03:40;;;;;;;;;;;;;;;;;;5096742;28;19916;-80
2022/04/28 10:06:09;;;;;;;;;;;;;;;;;;5098594;28;20699;-82
2022/04/28 10:08:56;;;;;;;;;;;;;;;;;;5104892;28;20360;-84
2022/04/28 10:11:23;;;;;;;;;;;;;;;;;;5086475;28;19923;-83
2022/04/28 10:13:51;;;;;;;;;;;;;;;;;;5100306;28;19922;-81
2022/04/28 10:16:19;;;;;;;;;;;;;;;;;;5095956;28;19912;-77
2022/04/28 10:19:08;;;;;;;;;;;;;;;;;;5099694;28;19916;-76
2022/04/28 10:21:53;;;;;;;;;;;;;;;;;;5087160;28;20271;-77
2022/04/28 10:32:57;;;;;;;;;;;;;;;;;;5097988;28;20350;-79
2022/04/28 10:35:41;;;;;;;;;;;;;;;;;;5098184;28;19916;-78
2022/04/28 10:38:15;;;;;;;;;;;;;;;;;;5101588;28;19916;-80
2022/04/28 10:40:45;;;;;;;;;;;;;;;;;;5098867;28;19916;-76
2022/04/28 10:43:21;;;;;;;;;;;;;;;;;;5097138;28;19916;-76
2022/04/28 10:45:49;;;;;;;;;;;;;;;;;;5095062;28;20009;-76
2022/04/28 10:48:31;;;;;;;;;;;;;;;;;;5096972;28;19922;-76
2022/04/28 10:51:05;;;;;;;;;;;;;;;;;;5097747;28;19927;-77
2022/04/28 10:53:31;;;;;;;;;;;;;;;;;;5097440;28;19923;-76
2022/04/28 10:56:04;;;;;;;;;;;;;;;;;;5096663;28;19924;-76
2022/04/28 10:58:29;;;;;;;;;;;;;;;;;;5096102;28;20408;-76
2022/04/28 11:00:56;;;;;;;;;;;;;;;;;;5084831;28;19916;-78
2022/04/28 11:03:40;;;;;;;;;;;;;;;;;;5074870;28;19970;-77
2022/04/28 11:06:13;;;;;;;;;;;;;;;;;;5074966;28;20370;-77
2022/04/28 11:08:43;;;;;;;;;;;;;;;;;;5076193;28;19993;-76
2022/04/28 11:11:11;;;;;;;;;;;;;;;;;;5076260;28;19916;-77
2022/04/28 11:13:38;;;;;;;;;;;;;;;;;;5075135;28;19916;-76
2022/04/28 11:16:03;;;;;;;;;;;;;;;;;;5082582;28;19920;-77
2022/04/28 11:18:29;;;;;;;;;;;;;;;;;;5095721;28;19916;-77
2022/04/28 11:20:58;;;;;;;;;;;;;;;;;;5095416;28;19916;-77
2022/04/28 11:23:23;;;;;;;;;;;;;;;;;;5096006;28;19916;-77
2022/04/28 11:25:49;;;;;;;;;;;;;;;;;;5093376;28;19974;-77
2022/04/28 11:28:15;;;;;;;;;;;;;;;;;;5094103;28;20002;-78
2022/04/28 11:30:41;;;;;;;;;;;;;;;;;;5096362;28;19982;-77
2022/04/28 11:33:09;;;;;;;;;;;;;;;;;;5091195;28;19917;-78
2022/04/28 11:35:36;;;;;;;;;;;;;;;;;;5073873;28;19922;-77
2022/04/28 11:38:01;;;;;;;;;;;;;;;;;;5075865;28;20378;-77
2022/04/28 11:40:27;;;;;;;;;;;;;;;;;;5075955;28;19928;-77
2022/04/28 11:42:59;;;;;;;;;;;;;;;;;;5075781;28;19916;-78
2022/04/28 11:45:26;;;;;;;;;;;;;;;;;;5074552;28;19920;-77
2022/04/28 11:47:53;;;;;;;;;;;;;;;;;;5074350;28;20038;-78
2022/04/28 11:50:20;;;;;;;;;;;;;;;;;;5074022;28;20294;-77
2022/04/28 11:52:56;;;;;;;;;;;;;;;;;;5079398;28;20444;-78
2022/04/28 11:55:24;;;;;;;;;;;;;;;;;;5095692;28;19920;-77
2022/04/28 11:57:49;;;;;;;;;;;;;;;;;;5094737;28;19920;-78
2022/04/28 12:00:15;;;;;;;;;;;;;;;;;;5092256;28;20407;-77
2022/04/28 12:02:44;;;;;;;;;;;;;;;;;;5095644;28;19916;-77
2022/04/28 12:05:16;;;;;;;;;;;;;;;;;;5094654;28;19927;-77
2022/04/28 12:07:43;;;;;;;;;;;;;;;;;;5077415;28;19916;-77
2022/04/28 12:15:48;;;;;;;;;;;;;;;;;;5095067;28;19922;-77
2022/04/28 12:20:59;;;;;;;;;;;;;;;;;;5094696;28;19973;-77
2022/04/28 12:23:28;;;;;;;;;;;;;;;;;;5094020;28;19916;-77
2022/04/28 12:25:56;;;;;;;;;;;;;;;;;;5093259;28;19920;-77
2022/04/28 12:28:28;;;;;;;;;;;;;;;;;;5094119;28;19916;-78
2022/04/28 12:30:53;;;;;;;;;;;;;;;;;;5094317;28;19958;-77
2022/04/28 12:33:19;;;;;;;;;;;;;;;;;;5095194;28;19947;-77
2022/04/28 12:35:46;;;;;;;;;;;;;;;;;;5095251;28;19916;-77
2022/04/28 12:38:12;;;;;;;;;;;;;;;;;;5094843;28;20364;-77
2022/04/28 12:40:42;;;;;;;;;;;;;;;;;;5094574;28;19927;-77
2022/04/28 12:43:08;;;;;;;;;;;;;;;;;;5093882;28;20353;-77
2022/04/28 12:45:43;;;;;;;;;;;;;;;;;;5095232;28;20015;-77
2022/04/28 12:48:24;;;;;;;;;;;;;;;;;;5093990;28;19920;-77
2022/04/28 12:50:50;;;;;;;;;;;;;;;;;;5094844;28;19923;-77
2022/04/28 12:53:30;;;;;;;;;;;;;;;;;;5094635;28;19951;-77
2022/04/28 12:56:09;;;;;;;;;;;;;;;;;;5094646;28;19963;-77
2022/04/28 12:58:38;;;;;;;;;;;;;;;;;;5094547;28;19977;-77
2022/04/28 13:01:03;;;;;;;;;;;;;;;;;;5093826;28;20453;-77
2022/04/28 13:03:29;;;;;;;;;;;;;;;;;;5093447;28;19955;-77
2022/04/28 13:05:55;;;;;;;;;;;;;;;;;;5091397;28;19928;-77
2022/04/28 13:08:20;;;;;;;;;;;;;;;;;;5085244;28;20374;-78
2022/04/28 13:10:46;;;;;;;;;;;;;;;;;;5082237;28;19916;-78
2022/04/28 13:13:11;;;;;;;;;;;;;;;;;;5073203;28;20255;-76
2022/04/28 13:15:37;;;;;;;;;;;;;;;;;;5072972;28;19917;-76
2022/04/28 13:18:02;;;;;;;;;;;;;;;;;;5074022;28;20015;-76
2022/04/28 13:20:27;;;;;;;;;;;;;;;;;;5089991;28;19927;-76
2022/04/28 13:22:55;;;;;;;;;;;;;;;;;;5093988;28;19923;-74
2022/04/28 13:25:20;;;;;;;;;;;;;;;;;;5078844;28;19920;-74
2022/04/28 13:27:46;;;;;;;;;;;;;;;;;;5073939;28;19922;-75
2022/04/28 13:30:13;;;;;;;;;;;;;;;;;;5072574;28;20013;-75
2022/04/28 13:32:39;;;;;;;;;;;;;;;;;;5073892;28;19917;-75
2022/04/28 13:35:04;;;;;;;;;;;;;;;;;;5073956;28;20003;-75
2022/04/28 13:37:29;;;;;;;;;;;;;;;;;;5073895;28;20266;-74
2022/04/28 13:39:55;;;;;;;;;;;;;;;;;;5073449;28;19924;-75
2022/04/28 13:42:20;;;;;;;;;;;;;;;;;;5073712;28;19964;-75
2022/04/28 13:44:46;;;;;;;;;;;;;;;;;;5073732;28;19973;-75
2022/04/28 13:47:12;;;;;;;;;;;;;;;;;;5073854;28;20372;-74
2022/04/28 13:49:39;;;;;;;;;;;;;;;;;;5073818;28;20011;-75
2022/04/28 13:52:04;;;;;;;;;;;;;;;;;;5072291;28;20003;-75
2022/04/28 13:54:29;;;;;;;;;;;;;;;;;;5076341;28;20010;-74
2022/04/28 13:56:55;;;;;;;;;;;;;;;;;;5093786;28;19920;-74
2022/04/28 13:59:20;;;;;;;;;;;;;;;;;;5093520;28;20278;-73
2022/04/28 14:01:46;;;;;;;;;;;;;;;;;;5093628;28;19923;-74
2022/04/28 14:04:13;;;;;;;;;;;;;;;;;;5092933;28;19916;-74
2022/04/28 14:06:39;;;;;;;;;;;;;;;;;;5092703;28;19920;-74
2022/04/28 14:09:04;;;;;;;;;;;;;;;;;;5093655;28;19961;-74
2022/04/28 14:11:30;;;;;;;;;;;;;;;;;;5093682;28;19916;-74
2022/04/28 14:13:55;;;;;;;;;;;;;;;;;;5093882;28;19920;-76
2022/04/28 14:16:21;;;;;;;;;;;;;;;;;;5093693;28;19923;-75
2022/04/28 14:18:46;;;;;;;;;;;;;;;;;;5093681;28;20020;-76
2022/04/28 14:21:13;;;;;;;;;;;;;;;;;;5093908;28;20001;-74
2022/04/28 14:23:38;;;;;;;;;;;;;;;;;;5093698;28;19927;-75
2022/04/28 14:26:04;;;;;;;;;;;;;;;;;;5093416;28;19931;-74
2022/04/28 14:28:30;;;;;;;;;;;;;;;;;;5093479;28;20414;-74
2022/04/28 14:30:55;;;;;;;;;;;;;;;;;;5092506;28;19916;-73
2022/04/28 14:33:20;;;;;;;;;;;;;;;;;;5093273;28;19955;-73
2022/04/28 14:35:45;;;;;;;;;;;;;;;;;;5093508;28;20290;-74
2022/04/28 14:38:11;;;;;;;;;;;;;;;;;;5093768;28;19916;-74
2022/04/28 14:40:37;;;;;;;;;;;;;;;;;;5093543;28;19916;-75
2022/04/28 14:43:02;;;;;;;;;;;;;;;;;;5093360;28;19916;-74
2022/04/28 14:45:27;;;;;;;;;;;;;;;;;;5093482;28;19934;-78
2022/04/28 14:47:52;;;;;;;;;;;;;;;;;;5099550;28;19916;-75
2022/04/28 14:53:01;;;;;;;;;;;;;;;;;;5092731;28;20370;-77
2022/04/28 14:55:27;;;;;;;;;;;;;;;;;;5094910;28;19980;-77
2022/04/28 14:57:53;;;;;;;;;;;;;;;;;;5092920;28;20408;-76
2022/04/28 15:00:28;;;;;;;;;;;;;;;;;;5092429;28;19916;-80
2022/04/28 15:02:54;;;;;;;;;;;;;;;;;;5096688;28;20008;-75
2022/04/28 15:05:19;;;;;;;;;;;;;;;;;;5097690;28;19920;-76
2022/04/28 15:07:45;;;;;;;;;;;;;;;;;;5097641;28;19974;-75
2022/04/28 15:10:11;;;;;;;;;;;;;;;;;;5097169;28;19924;-76
2022/04/28 15:12:37;;;;;;;;;;;;;;;;;;5098629;28;20003;-78
2022/04/28 15:15:07;;;;;;;;;;;;;;;;;;5099303;28;19916;-74
2022/04/28 15:17:33;;;;;;;;;;;;;;;;;;5095133;28;20385;-77
2022/04/28 15:19:58;;;;;;;;;;;;;;;;;;5095576;28;19916;-76
2022/04/28 15:22:24;;;;;;;;;;;;;;;;;;5096513;28;19938;-75
2022/04/28 15:24:49;;;;;;;;;;;;;;;;;;5096036;28;19920;-76
2022/04/28 15:27:14;;;;;;;;;;;;;;;;;;5096426;28;19962;-75
2022/04/28 15:29:40;;;;;;;;;;;;;;;;;;5093260;28;19969;-75
2022/04/28 15:32:06;;;;;;;;;;;;;;;;;;5085203;28;19956;-76
2022/04/28 15:34:33;;;;;;;;;;;;;;;;;;5082634;28;19986;-75
2022/04/28 15:36:59;;;;;;;;;;;;;;;;;;5076496;28;20545;-75
2022/04/28 15:39:24;;;;;;;;;;;;;;;;;;5076042;28;19956;-75
2022/04/28 15:41:50;;;;;;;;;;;;;;;;;;5075417;28;19917;-76
2022/04/28 15:44:16;;;;;;;;;;;;;;;;;;5078838;28;20007;-76
2022/04/28 15:46:41;;;;;;;;;;;;;;;;;;5096054;28;19927;-76
2022/04/28 15:49:07;;;;;;;;;;;;;;;;;;5096252;28;19916;-76
2022/04/28 15:51:33;;;;;;;;;;;;;;;;;;5095307;28;19916;-75
2022/04/28 15:53:59;;;;;;;;;;;;;;;;;;5093322;28;19916;-76
2022/04/28 15:56:24;;;;;;;;;;;;;;;;;;5095298;28;20331;-75
2022/04/28 15:58:49;;;;;;;;;;;;;;;;;;5093890;28;20297;-75
2022/04/28 16:01:16;;;;;;;;;;;;;;;;;;5094692;28;19916;-76
2022/04/28 16:03:42;;;;;;;;;;;;;;;;;;5094995;28;19916;-75
2022/04/28 16:06:07;;;;;;;;;;;;;;;;;;5092490;28;19927;-76
2022/04/28 16:08:33;;;;;;;;;;;;;;;;;;5093668;28;19916;-76
2022/04/28 16:10:58;;;;;;;;;;;;;;;;;;5092288;28;19916;-75
2022/04/28 16:13:23;;;;;;;;;;;;;;;;;;5093810;28;20344;-76
2022/04/28 16:15:51;;;;;;;;;;;;;;;;;;5092845;28;20012;-76
2022/04/28 16:18:17;;;;;;;;;;;;;;;;;;5092435;28;19942;-76
2022/04/28 16:20:42;;;;;;;;;;;;;;;;;;5093200;28;19916;-75
2022/04/28 16:23:08;;;;;;;;;;;;;;;;;;5095431;28;20274;-76
2022/04/28 16:25:33;;;;;;;;;;;;;;;;;;5095455;28;20358;-75
2022/04/28 16:27:58;;;;;;;;;;;;;;;;;;5094944;28;19977;-75
2022/04/28 16:30:24;;;;;;;;;;;;;;;;;;5092678;28;19920;-75
2022/04/28 16:32:49;;;;;;;;;;;;;;;;;;5095360;28;19975;-76
2022/04/28 16:35:15;;;;;;;;;;;;;;;;;;5095226;28;19922;-75
2022/04/28 16:37:40;;;;;;;;;;;;;;;;;;5094451;28;19922;-75
2022/04/28 16:40:06;;;;;;;;;;;;;;;;;;5095348;28;19938;-76
2022/04/28 16:42:31;;;;;;;;;;;;;;;;;;5095008;28;19916;-75
2022/04/28 16:44:57;;;;;;;;;;;;;;;;;;5094723;28;19920;-76
2022/04/28 16:47:23;;;;;;;;;;;;;;;;;;5093520;28;19938;-75
2022/04/28 16:49:48;;;;;;;;;;;;;;;;;;5094714;28;19923;-76
2022/04/28 16:52:14;;;;;;;;;;;;;;;;;;5093754;28;19916;-75
2022/04/28 16:54:40;;;;;;;;;;;;;;;;;;5094660;28;20269;-75
2022/04/28 16:57:06;;;;;;;;;;;;;;;;;;5093606;28;19916;-76
2022/04/28 16:59:32;;;;;;;;;;;;;;;;;;5093712;28;19985;-76
2022/04/28 17:01:58;;;;;;;;;;;;;;;;;;5093841;28;19942;-75
2022/04/28 17:04:24;;;;;;;;;;;;;;;;;;5094560;28;20293;-75
2022/04/28 17:06:50;;;;;;;;;;;;;;;;;;5094601;28;19916;-76
2022/04/28 17:09:16;;;;;;;;;;;;;;;;;;5094600;28;19916;-76
2022/04/28 17:11:41;;;;;;;;;;;;;;;;;;5094764;28;19916;-75
2022/04/28 17:14:08;;;;;;;;;;;;;;;;;;5076319;28;19916;-75
2022/04/28 17:16:34;;;;;;;;;;;;;;;;;;5094435;28;20003;-76
2022/04/28 17:19:00;;;;;;;;;;;;;;;;;;5094293;28;19956;-76
2022/04/28 17:21:27;;;;;;;;;;;;;;;;;;5094360;28;19924;-76
2022/04/28 17:23:53;;;;;;;;;;;;;;;;;;5094529;28;20290;-76
2022/04/28 17:26:18;;;;;;;;;;;;;;;;;;5093818;28;19924;-76
2022/04/28 17:28:43;;;;;;;;;;;;;;;;;;5093253;28;20350;-76
2022/04/28 17:31:09;;;;;;;;;;;;;;;;;;5092611;28;20267;-76
2022/04/28 17:33:34;;;;;;;;;;;;;;;;;;5093003;28;19916;-76
2022/04/28 17:35:59;;;;;;;;;;;;;;;;;;5093962;28;19922;-76
2022/04/28 17:38:25;;;;;;;;;;;;;;;;;;5094071;28;19923;-76
2022/04/28 17:40:51;;;;;;;;;;;;;;;;;;5094184;28;20390;-76
2022/04/28 17:43:16;;;;;;;;;;;;;;;;;;5094173;28;19916;-76